Terminal Aerodrome Forecast
Issued by NWS

Home | Current Version | Previous Version | Text Only | Print | Product List | Glossary On
Versions: 1 2 3 4 5 6 7 8 9 10 11 12 13 14 15 16 17 18 19 20 21 22 23 24 25 26 27 28 29 30 31
839
FTUS43 KLOT 270539
TAFORD
TAF
KORD 270539Z 2706/2812 27006KT 3SM BR OVC004
     FM271400 05005KT 4SM BR OVC006
     FM271600 06007KT P6SM SCT007 OVC010
      TEMPO 2720/2724 5SM -SHRA BR BKN007
     FM280100 03011KT P6SM VCSH FEW007 BKN015
     FM280600 02010KT P6SM FEW007 BKN015=

USA.gov is the U.S. government's official web portal to all federal, state and local government web resources and services.